• Join FlightAware (Why Join?)
  • Login
  • US Flag 
06:30AM EDT


 

Airport Tracker/Info


-or-


 

Live Flight TrackerFlight Track Log ✈ N1253W ✈ 19-Apr-2013 ✈ KBKL - KOSU

Flight Track Log - Related Links

Times and Time Zones

All times are in EDT time to prevent confusion due to time zone crossing. See the N1253W flight status page for this flight to view local times or setup timezone preferences in your user account.

Time Position Orientation Groundspeed Altitude Reporting Facility
EDT Latitude Longitude Course Direction KTS MPH feet Rate Location/Type
02:12PM 41.5125 -81.6950 329° Northwest 124 143 1,200  Level Cleveland Center
02:14PM 41.5519 -81.7264 329° Northwest 189 217 2,100 1,080 Climbing Cleveland Center
02:15PM 41.5681 -81.7681 297° West 136 157 3,600 1,740 Climbing Cleveland Center
02:16PM 41.5325 -81.8008 215° Southwest 147 169 5,700 1,920 Climbing Cleveland Center
02:17PM 41.4989 -81.8169 200° South 134 154 7,800 1,800 Climbing Cleveland Center
02:18PM 41.4675 -81.8328 201° Southwest 129 148 9,600 1,500 Climbing Cleveland Center
02:19PM 41.4319 -81.8489 199° South 127 146 10,900 720 Climbing Cleveland Center
02:20PM 41.3878 -81.8644 195° South 198 228 11,100 60 Climbing Cleveland Center
02:21PM 41.3356 -81.8800 193° South 196 226 11,100  Level Cleveland Center
02:22PM 41.2833 -81.9011 197° South 196 226 11,100  Level Cleveland Center
02:23PM 41.2308 -81.9222 197° South 204 235 11,100 -240 Level Cleveland Center
02:24PM 41.1764 -81.9403 194° South 209 241 10,700 -780 Descending Cleveland Center
02:25PM 41.1178 -81.9611 195° South 209 241 9,600 -1,080 Descending Cleveland Center
02:26PM 41.0614 -81.9819 196° South 209 241 8,600 -900 Descending Cleveland Center
02:27PM 40.9964 -82.0056 195° South 214 246 7,900 -360 Descending Cleveland Center
02:28PM 40.9378 -82.0261 195° South 214 246 7,900  Level Cleveland Center
02:29PM 40.8853 -82.0581 205° Southwest 219 252 7,900  Level Cleveland Center
02:30PM 40.8325 -82.0953 208° Southwest 213 245 7,900  Level Cleveland Center
02:31PM 40.7842 -82.1325 210° Southwest 213 245 7,900  Level Cleveland Center
02:32PM 40.7317 -82.1669 206° Southwest 213 245 7,900  Level Cleveland Center
02:33PM 40.6789 -82.2039 208° Southwest 213 245 7,900  Level Cleveland Center
02:34PM 40.6283 -82.2436 211° Southwest 213 245 7,900 60 Level Cleveland Center
02:34PM 40.6028 -82.2608 207° Southwest 211 243 8,000 60 Climbing Indianapolis Center
02:35PM 40.5511 -82.2992 209° Southwest 210 242 8,000  Level Indianapolis Center
02:36PM 40.5194 -82.3253 212° Southwest 211 243 8,000  Level Indianapolis Center
02:36PM 40.4992 -82.3378 205° Southwest 211 243 8,000  Level Indianapolis Center
02:37PM 40.4708 -82.3667 218° Southwest 211 243 8,000  Level Indianapolis Center
02:37PM 40.4478 -82.3953 223° Southwest 208 239 8,000  Level Indianapolis Center
02:38PM 40.4300 -82.4197 226° Southwest 208 239 8,000  Level Indianapolis Center
02:38PM 40.4053 -82.4489 222° Southwest 209 241 8,000  Level Indianapolis Center
02:39PM 40.3822 -82.4775 223° Southwest 211 243 8,000 -240 Level Indianapolis Center
02:39PM 40.3625 -82.5042 226° Southwest 214 246 7,800 -600 Descending Indianapolis Center
02:40PM 40.3414 -82.5306 224° Southwest 212 244 7,400 -900 Descending Indianapolis Center
02:40PM 40.3228 -82.5514 220° Southwest 191 220 6,900 -1,140 Descending Indianapolis Center
02:41PM 40.3050 -82.5758 226° Southwest 172 198 6,300 -1,140 Descending Indianapolis Center
02:41PM 40.2883 -82.5947 221° Southwest 173 199 5,800 -1,200 Descending Indianapolis Center
02:42PM 40.2711 -82.6158 223° Southwest 162 186 5,100 -1,500 Descending Indianapolis Center
02:42PM 40.2533 -82.6383 224° Southwest 172 198 4,300 -1,380 Descending Indianapolis Center
02:43PM 40.2367 -82.6611 226° Southwest 178 205 3,700 -1,260 Descending Indianapolis Center
02:44PM 40.2158 -82.6861 223° Southwest 176 203 3,000 -720 Descending Indianapolis Center
02:44PM 40.2025 -82.7039 226° Southwest 172 198 3,000  Level Indianapolis Center
02:45PM 40.1808 -82.7281 220° Southwest 172 198 3,000  Level Indianapolis Center
02:45PM 40.1661 -82.7489 227° Southwest 175 201 3,000 -120 Level Indianapolis Center
02:46PM 40.1458 -82.7772 227° Southwest 178 205 2,900  Descending Indianapolis Center
02:46PM 40.1369 -82.8083 250° West 189 217 3,000 60 Climbing Indianapolis Center
02:47PM 40.1239 -82.8400 242° Southwest 183 211 3,000  Level Indianapolis Center
02:47PM 40.1142 -82.8683 246° West 183 211 3,000 -120 Level Indianapolis Center
02:48PM 40.1019 -82.9014 244° Southwest 185 213 2,900 -120 Descending Indianapolis Center
02:48PM 40.0914 -82.9286 243° Southwest 183 211 2,900 -420 Level Indianapolis Center
02:49PM 40.0817 -82.9603 248° West 182 209 2,500 -600 Descending Indianapolis Center
02:49PM 40.0814 -82.9819 269° West 134 154 2,300 -780 Descending Indianapolis Center
02:50PM 40.0797 -83.0144 266° West 143 165 1,700 -840 Descending Indianapolis Center
02:50PM 40.0781 -83.0306 262° West 121 139 1,500 -720 Descending Indianapolis Center
02:51PM 40.0775 -83.0558 268° West 125 144 1,000 -720 Descending Indianapolis Center
02:53PM 40.0667 -83.0667 246° West  Level FlightAware Approximate